Hocking — AEPB — position and weather

sailwx.info

Track history (hours):
 
Tides and Currents Weather Stations Pressure Air Temp Water Temp Dewpoint Dewpoint Depression Visibility Wind Speed Wind Dir Waves Ship Positions

Hocking

Last reported at 2018-Feb-20 19:37 UTC. Time now 2018-Feb-21 02:02 UTC.
Position N 40°41' W 074°04'.

Length 21 m; draft 1.8 m.

Type: Other ship. MMSI: 366999414.

Date/timePositionNaut miles runAvg speedWind from/ knotsBaromVisibWave heightAir tempDewpointWater temp
2018-Feb-20 19:37N 40°41' W 074°04'1 7.1
2018-Feb-20 19:30N 40°40' W 074°04'2 3.0
2018-Feb-20 19:00N 40°39' W 074°02'1 0.5
2018-Feb-20 16:35N 40°40' W 074°01'1 7.2
2018-Feb-20 16:30N 40°39' W 074°01'3 5.7
2018-Feb-20 15:59N 40°37' W 074°03'3 6.0
2018-Feb-20 15:30N 40°40' W 074°04'1 1.3
2018-Feb-20 14:30N 40°41' W 074°04'0 0.2
2018-Feb-20 14:00N 40°41' W 074°04'  
2018-Feb-16 16:41N 40°40' W 074°01'2 8.4
2018-Feb-16 16:30N 40°42' W 074°02'3 6.9
2018-Feb-16 16:00N 40°45' W 074°01'1 2.6
2018-Feb-16 15:30N 40°44' W 074°01'5 9.6
2018-Feb-16 15:00N 40°39' W 074°03'4 8.4
2018-Feb-16 14:29N 40°36' W 074°00'3 5.6
2018-Feb-16 14:00N 40°37' W 074°03'2 4.2
2018-Feb-16 13:30N 40°39' W 074°03'1 0.1
2018-Feb-15 19:20N 40°40' W 074°04'2 7.5
2018-Feb-15 19:00N 40°37' W 074°04'3 5.2
2018-Feb-15 18:30N 40°35' W 074°02'4 8.2
2018-Feb-15 18:00N 40°39' W 074°02'3 6.7
2018-Feb-15 17:30N 40°43' W 074°02'1 2.8
2018-Feb-15 17:00N 40°44' W 074°02'0 0.0
2018-Feb-15 16:30N 40°44' W 074°02'3 6.3
2018-Feb-15 16:00N 40°47' W 073°60'1 1.9
2018-Feb-15 15:30N 40°48' W 073°59'4 9.0
2018-Feb-15 15:00N 40°44' W 074°01'4 7.2
2018-Feb-15 14:30N 40°41' W 074°04'0 0.0
2018-Feb-14 19:36N 40°41' W 074°04'1 8.9
2018-Feb-14 19:30N 40°41' W 074°03'3 2.0
2018-Feb-14 18:12N 40°43' W 074°01'0 0.1
2018-Feb-14 18:00N 40°43' W 074°01'0 0.2
2018-Feb-14 17:30N 40°43' W 074°01'0 0.2
2018-Feb-14 17:00N 40°43' W 074°01'0 0.0
2018-Feb-14 16:30N 40°43' W 074°01'1 1.5
2018-Feb-14 16:00N 40°44' W 074°01'2 3.6
2018-Feb-14 15:30N 40°45' W 074°01'3 6.7
2018-Feb-14 15:00N 40°42' W 074°01'5 9.5
2018-Feb-14 14:30N 40°38' W 074°04'2 3.9
2018-Feb-14 14:00N 40°40' W 074°03'2 3.5
2018-Feb-14 13:30N 40°41' W 074°04'1 0.0
2018-Feb-13 19:32N 40°41' W 074°04'0 7.6
2018-Feb-13 19:31N 40°40' W 074°03'2 4.7
2018-Feb-13 19:01N 40°40' W 074°00'0 0.0
2018-Feb-13 18:31N 40°40' W 074°00'0 0.0
2018-Feb-13 18:00N 40°40' W 074°00'1 1.4
2018-Feb-13 17:01N 40°41' W 074°02'3 6.6
2018-Feb-13 16:30N 40°44' W 074°01'2 4.8
2018-Feb-13 16:00N 40°42' W 074°01'3 5.2
2018-Feb-13 15:30N 40°41' W 074°04'1 1.4
2018-Feb-13 15:00N 40°40' W 074°04'2 4.1
2018-Feb-13 14:30N 40°38' W 074°03'3 6.4
2018-Feb-13 14:00N 40°41' W 074°02'2 4.8
2018-Feb-13 13:30N 40°40' W 074°05'1 0.1
2018-Feb-12 19:39N 40°41' W 074°04'1 5.3
2018-Feb-12 19:30N 40°40' W 074°04'2 3.6
2018-Feb-12 19:01N 40°40' W 074°02'1 2.6
2018-Feb-12 18:30N 40°40' W 074°00'0 0.0
2018-Feb-12 18:00N 40°40' W 074°00'0 0.0
2018-Feb-12 17:00N 40°40' W 074°00'2 4.1
2018-Feb-12 16:31N 40°40' W 074°03'  
Track history (hours):
 
Tides and Currents Weather Stations Pressure Air Temp Water Temp Dewpoint Dewpoint Depression Visibility Wind Speed Wind Dir Waves Ship Positions

Hocking

Last reported at 2018-Feb-20 19:37 UTC. Time now 2018-Feb-21 02:02 UTC.
Position N 40°41' W 074°04'.

Length 21 m; draft 1.8 m.

Type: Other ship. MMSI: 366999414.

Date/timePositionNaut miles runAvg speedWind from/ knotsBaromVisibWave heightAir tempDewpointWater temp
2018-Feb-20 19:37N 40°41' W 074°04'1 7.1
2018-Feb-20 19:30N 40°40' W 074°04'2 3.0
2018-Feb-20 19:00N 40°39' W 074°02'1 0.5
2018-Feb-20 16:35N 40°40' W 074°01'1 7.2
2018-Feb-20 16:30N 40°39' W 074°01'3 5.7
2018-Feb-20 15:59N 40°37' W 074°03'3 6.0
2018-Feb-20 15:30N 40°40' W 074°04'1 1.3
2018-Feb-20 14:30N 40°41' W 074°04'0 0.2
2018-Feb-20 14:00N 40°41' W 074°04'  
2018-Feb-16 16:41N 40°40' W 074°01'2 8.4
2018-Feb-16 16:30N 40°42' W 074°02'3 6.9
2018-Feb-16 16:00N 40°45' W 074°01'1 2.6
2018-Feb-16 15:30N 40°44' W 074°01'5 9.6
2018-Feb-16 15:00N 40°39' W 074°03'4 8.4
2018-Feb-16 14:29N 40°36' W 074°00'3 5.6
2018-Feb-16 14:00N 40°37' W 074°03'2 4.2
2018-Feb-16 13:30N 40°39' W 074°03'1 0.1
2018-Feb-15 19:20N 40°40' W 074°04'2 7.5
2018-Feb-15 19:00N 40°37' W 074°04'3 5.2
2018-Feb-15 18:30N 40°35' W 074°02'4 8.2
2018-Feb-15 18:00N 40°39' W 074°02'3 6.7
2018-Feb-15 17:30N 40°43' W 074°02'1 2.8
2018-Feb-15 17:00N 40°44' W 074°02'0 0.0
2018-Feb-15 16:30N 40°44' W 074°02'3 6.3
2018-Feb-15 16:00N 40°47' W 073°60'1 1.9
2018-Feb-15 15:30N 40°48' W 073°59'4 9.0
2018-Feb-15 15:00N 40°44' W 074°01'4 7.2
2018-Feb-15 14:30N 40°41' W 074°04'0 0.0
2018-Feb-14 19:36N 40°41' W 074°04'1 8.9
2018-Feb-14 19:30N 40°41' W 074°03'3 2.0
2018-Feb-14 18:12N 40°43' W 074°01'0 0.1
2018-Feb-14 18:00N 40°43' W 074°01'0 0.2
2018-Feb-14 17:30N 40°43' W 074°01'0 0.2
2018-Feb-14 17:00N 40°43' W 074°01'0 0.0
2018-Feb-14 16:30N 40°43' W 074°01'1 1.5
2018-Feb-14 16:00N 40°44' W 074°01'2 3.6
2018-Feb-14 15:30N 40°45' W 074°01'3 6.7
2018-Feb-14 15:00N 40°42' W 074°01'5 9.5
2018-Feb-14 14:30N 40°38' W 074°04'2 3.9
2018-Feb-14 14:00N 40°40' W 074°03'2 3.5
2018-Feb-14 13:30N 40°41' W 074°04'1 0.0
2018-Feb-13 19:32N 40°41' W 074°04'0 7.6
2018-Feb-13 19:31N 40°40' W 074°03'2 4.7
2018-Feb-13 19:01N 40°40' W 074°00'0 0.0
2018-Feb-13 18:31N 40°40' W 074°00'0 0.0
2018-Feb-13 18:00N 40°40' W 074°00'1 1.4
2018-Feb-13 17:01N 40°41' W 074°02'3 6.6
2018-Feb-13 16:30N 40°44' W 074°01'2 4.8
2018-Feb-13 16:00N 40°42' W 074°01'3 5.2
2018-Feb-13 15:30N 40°41' W 074°04'1 1.4
2018-Feb-13 15:00N 40°40' W 074°04'2 4.1
2018-Feb-13 14:30N 40°38' W 074°03'3 6.4
2018-Feb-13 14:00N 40°41' W 074°02'2 4.8
2018-Feb-13 13:30N 40°40' W 074°05'1 0.1
2018-Feb-12 19:39N 40°41' W 074°04'1 5.3
2018-Feb-12 19:30N 40°40' W 074°04'2 3.6
2018-Feb-12 19:01N 40°40' W 074°02'1 2.6
2018-Feb-12 18:30N 40°40' W 074°00'0 0.0
2018-Feb-12 18:00N 40°40' W 074°00'0 0.0
2018-Feb-12 17:00N 40°40' W 074°00'2 4.1
2018-Feb-12 16:31N 40°40' W 074°03'  

Dump ship's entire track history